| time (UTC) | temp F | wind direction | speed knots | gust knots | rain 1hr in | rain 24hr in | rain mn in | humidity % | barometer mb |
| 20260506001526 | 50 | 291 | 2.6 | 0.0 | 0.00 | 0.00 | 0.00 | 66 | 1005.9 |
| 20260506000023 | 50 | 298 | 2.6 | 0.0 | 0.00 | 0.00 | 0.00 | 68 | 1005.7 |
| 20260505234521 | 50 | 271 | 3.5 | 0.0 | 0.00 | 0.00 | 0.00 | 71 | 1005.6 |
| 20260505233020 | 50 | 259 | 3.5 | 0.0 | 0.00 | 0.00 | 0.00 | 71 | 1005.4 |
| 20260505231518 | 51 | 273 | 4.3 | 0.0 | 0.00 | 0.00 | 0.00 | 71 | 1005.3 |
| 20260505230023 | 51 | 273 | 5.2 | 0.0 | 0.00 | 0.00 | 0.00 | 70 | 1005.1 |
| 20260505224512 | 52 | 304 | 7.0 | 0.0 | 0.00 | 0.00 | 0.00 | 68 | 1005.0 |
| 20260505223008 | 55 | 301 | 6.1 | 0.0 | 0.00 | 0.00 | 0.00 | 64 | 1004.8 |
| 20260505221508 | 57 | 283 | 5.2 | 0.0 | 0.00 | 0.00 | 0.00 | 55 | 1004.2 |
| 20260505220005 | 58 | 311 | 7.8 | 0.0 | 0.00 | 0.00 | 0.00 | 53 | 1003.8 |
| 20260505214505 | 59 | 292 | 7.0 | 0.0 | 0.00 | 0.00 | 0.00 | 53 | 1003.7 |
| 20260505213003 | 59 | 294 | 6.1 | 0.0 | 0.00 | 0.00 | 0.00 | 54 | 1003.2 |
| 20260505211559 | 59 | 297 | 7.0 | 0.0 | 0.00 | 0.00 | 0.00 | 54 | 1003.0 |
| 20260505210056 | 59 | 287 | 7.0 | 0.0 | 0.00 | 0.00 | 0.00 | 56 | 1002.7 |
| 20260505204554 | 60 | 285 | 6.1 | 0.0 | 0.00 | 0.00 | 0.00 | 57 | 1002.5 |
| 20260505203053 | 60 | 259 | 5.2 | 0.0 | 0.00 | 0.00 | 0.00 | 62 | 1002.1 |
| 20260505201556 | 60 | 286 | 4.3 | 0.0 | 0.00 | 0.00 | 0.00 | 63 | 1001.9 |
| 20260505200049 | 61 | 281 | 4.3 | 0.0 | 0.00 | 0.00 | 0.00 | 65 | 1001.7 |
| 20260505194548 | 61 | 269 | 5.2 | 0.0 | 0.00 | 0.00 | 0.00 | 67 | 1001.4 |
| 20260505193048 | 61 | 295 | 4.3 | 0.0 | 0.00 | 0.00 | 0.00 | 70 | 1001.4 |
| 20260505191601 | 60 | 263 | 5.2 | 0.0 | 0.00 | 0.00 | 0.00 | 73 | 1001.3 |
| 20260505190055 | 60 | 285 | 5.2 | 0.0 | 0.00 | 0.00 | 0.00 | 75 | 1001.3 |
| 20260505184546 | 61 | 292 | 6.1 | 0.0 | 0.00 | 0.00 | 0.00 | 75 | 1001.1 |
| 20260505183109 | 63 | 286 | 7.0 | 0.0 | 0.00 | 0.00 | 0.00 | 76 | 1001.0 |
| 20260505181541 | 66 | 295 | 7.0 | 0.0 | 0.00 | 0.00 | 0.00 | 65 | 1000.6 |
| 20260505180043 | 67 | 269 | 7.8 | 0.0 | 0.00 | 0.00 | 0.00 | 61 | 1000.0 |
| 20260505174540 | 69 | 284 | 6.1 | 0.0 | 0.00 | 0.00 | 0.00 | 60 | 1000.1 |
| 20260505173047 | 69 | 234 | 6.1 | 0.0 | 0.00 | 0.00 | 0.00 | 61 | 999.8 |
| 20260505171544 | 66 | 250 | 5.2 | 0.0 | 0.00 | 0.00 | 0.00 | 64 | 1000.1 |
| 20260505170037 | 66 | 226 | 6.1 | 0.0 | 0.00 | 0.00 | 0.00 | 64 | 999.7 |
| 20260505164535 | 66 | 254 | 7.0 | 0.0 | 0.00 | 0.00 | 0.00 | 63 | 1000.0 |
| 20260505163035 | 67 | 254 | 7.8 | 0.0 | 0.00 | 0.00 | 0.00 | 62 | 999.9 |
| 20260505161533 | 68 | 221 | 9.6 | 0.0 | 0.00 | 0.00 | 0.00 | 60 | 999.6 |
| 20260505153026 | 66 | 161 | 7.8 | 0.0 | 0.00 | 0.00 | 0.00 | 63 | 999.0 |
| 20260505151530 | 65 | 289 | 7.0 | 0.0 | 0.00 | 0.00 | 0.00 | 65 | 999.2 |
| 20260505124558 | 59 | 236 | 4.3 | 0.0 | 0.00 | 0.00 | 0.00 | 78 | 999.0 |
| 20260505123055 | 58 | 160 | 4.3 | 0.0 | 0.00 | 0.00 | 0.00 | 78 | 999.0 |
| 20260505121554 | 57 | 165 | 4.3 | 0.0 | 0.00 | 0.00 | 0.00 | 79 | 998.9 |
| 20260505120110 | 57 | 237 | 4.3 | 0.0 | 0.00 | 0.00 | 0.00 | 78 | 998.7 |
| 20260505114553 | 57 | 249 | 4.3 | 0.0 | 0.00 | 0.00 | 0.00 | 79 | 999.0 |
| 20260505113053 | 56 | 206 | 2.6 | 0.0 | 0.00 | 0.00 | 0.00 | 79 | 999.0 |
| 20260505111553 | 56 | 235 | 4.3 | 0.0 | 0.00 | 0.00 | 0.00 | 80 | 999.0 |
| 20260505101543 | 55 | 263 | 1.7 | 0.0 | 0.00 | 0.00 | 0.00 | 79 | 998.8 |
| 20260505100043 | 56 | 285 | 3.5 | 0.0 | 0.00 | 0.00 | 0.00 | 79 | 998.6 |
| 20260505094543 | 56 | 165 | 3.5 | 0.0 | 0.00 | 0.00 | 0.00 | 78 | 998.5 |
| 20260505093043 | 56 | 149 | 3.5 | 0.0 | 0.00 | 0.00 | 0.00 | 77 | 998.2 |
| 20260505091540 | 57 | 197 | 3.5 | 0.0 | 0.00 | 0.00 | 0.00 | 76 | 998.4 |
| 20260505090140 | 57 | 200 | 3.5 | 0.0 | 0.00 | 0.00 | 0.00 | 75 | 998.5 |
| 20260505084538 | 57 | 209 | 3.5 | 0.0 | 0.00 | 0.00 | 0.00 | 75 | 998.6 |
| 20260505083035 | 57 | 211 | 4.3 | 0.0 | 0.00 | 0.00 | 0.00 | 73 | 998.9 |
| 20260505081539 | 57 | 217 | 2.6 | 0.0 | 0.00 | 0.00 | 0.00 | 72 | 999.0 |
| 20260505080038 | 58 | 242 | 2.6 | 0.0 | 0.00 | 0.00 | 0.00 | 72 | 999.1 |
| 20260505074533 | 57 | 240 | 3.5 | 0.0 | 0.00 | 0.00 | 0.00 | 71 | 999.0 |
| 20260505073046 | 57 | 180 | 3.5 | 0.0 | 0.00 | 0.00 | 0.00 | 71 | 999.0 |
| 20260505071529 | 56 | 173 | 3.5 | 0.0 | 0.00 | 0.00 | 0.00 | 70 | 999.1 |
| 20260505070028 | 56 | 227 | 4.3 | 0.0 | 0.00 | 0.00 | 0.00 | 69 | 999.1 |
| 20260505064537 | 55 | 149 | 2.6 | 0.0 | 0.00 | 0.00 | 0.00 | 66 | 999.0 |
| 20260505063022 | 54 | 219 | 1.7 | 0.0 | 0.00 | 0.00 | 0.00 | 66 | 999.1 |
| 20260505061530 | 54 | 184 | 2.6 | 0.0 | 0.00 | 0.00 | 0.00 | 65 | 999.1 |
| 20260505060020 | 53 | 207 | 2.6 | 0.0 | 0.00 | 0.00 | 0.00 | 65 | 999.4 |
| 20260505054523 | 53 | 167 | 1.7 | 0.0 | 0.00 | 0.00 | 0.00 | 66 | 999.4 |
| 20260505053016 | 53 | 209 | 1.7 | 0.0 | 0.00 | 0.00 | 0.00 | 65 | 999.6 |
| 20260505051517 | 53 | 244 | 1.7 | 0.0 | 0.00 | 0.00 | 0.00 | 66 | 999.6 |
| 20260505041512 | 54 | 250 | 0.9 | 0.0 | 0.00 | 0.00 | 0.00 | 66 | 1000.0 |
| 20260505040006 | 54 | 217 | 0.0 | 0.0 | 0.00 | 0.00 | 0.02 | 67 | 1000.3 |
| 20260505034509 | 54 | 216 | 0.0 | 0.0 | 0.00 | 0.00 | 0.02 | 66 | 1000.3 |
| 20260505033005 | 55 | 215 | 0.0 | 0.0 | 0.00 | 0.00 | 0.02 | 65 | 1000.3 |
| 20260505031514 | 55 | 213 | 0.9 | 0.0 | 0.00 | 0.00 | 0.02 | 64 | 1000.3 |
| 20260505030003 | 56 | 211 | 0.0 | 0.0 | 0.00 | 0.00 | 0.02 | 63 | 1000.4 |
| 20260505024506 | 57 | 209 | 0.9 | 0.0 | 0.00 | 0.00 | 0.02 | 62 | 1000.5 |
| 20260505023003 | 57 | 215 | 0.0 | 0.0 | 0.00 | 0.00 | 0.02 | 61 | 1000.6 |
| 20260505021542 | 57 | 218 | 0.9 | 0.0 | 0.00 | 0.00 | 0.02 | 61 | 1000.6 |
| 20260505020042 | 58 | 257 | 1.7 | 0.0 | 0.00 | 0.00 | 0.02 | 60 | 1000.6 |
| 20260505014543 | 58 | 200 | 1.7 | 0.0 | 0.00 | 0.00 | 0.02 | 60 | 1000.6 |
| 20260505013047 | 59 | 192 | 1.7 | 0.0 | 0.00 | 0.00 | 0.02 | 59 | 1000.8 |
| 20260505011542 | 59 | 199 | 1.7 | 0.0 | 0.00 | 0.00 | 0.02 | 59 | 1000.9 |
| 20260505010041 | 59 | 179 | 2.6 | 0.0 | 0.00 | 0.00 | 0.02 | 59 | 1000.6 |
| 20260505004548 | 60 | 202 | 2.6 | 0.0 | 0.00 | 0.00 | 0.02 | 59 | 1000.9 |
| 20260505003042 | 61 | 212 | 2.6 | 0.0 | 0.00 | 0.00 | 0.02 | 58 | 1000.8 |